Time;durP1;ratioP1;P1;durP2;ratioP2;P2;SDS_P1;SDS_P2;PMS_P1;PMS_P2;Temp;Humidity;BMP_temperature;BMP_pressure;BME280_temperature;BME280_humidity;BME280_pressure;Samples;Min_cycle;Max_cycle;Signal;HPM_P1;HPM_P2
2020/12/31 00:02:07;;;;;;;3.27;0.67;;;;;;;;;;4959120;29;20103;-81
2020/12/31 00:04:33;;;;;;;1.90;0.50;;;;;;;;;;4955910;29;20043;-81
2020/12/31 00:06:59;;;;;;;2.60;0.67;;;;;;;;;;4957965;29;20036;-81
2020/12/31 00:09:25;;;;;;;2.80;0.80;;;;;;;;;;4947730;29;20046;-80
2020/12/31 00:11:51;;;;;;;3.00;0.60;;;;;;;;;;4944631;29;20035;-80
2020/12/31 00:14:17;;;;;;;2.37;0.60;;;;;;;;;;4945653;29;20071;-80
2020/12/31 00:16:43;;;;;;;3.57;1.47;;;;;;;;;;4944154;29;20027;-80
2020/12/31 00:19:09;;;;;;;2.47;1.73;;;;;;;;;;4943943;29;20067;-80
2020/12/31 00:21:35;;;;;;;1.10;0.50;;;;;;;;;;4945818;29;20085;-80
2020/12/31 00:24:01;;;;;;;2.47;0.50;;;;;;;;;;4946456;29;20039;-80
2020/12/31 00:26:27;;;;;;;3.53;1.03;;;;;;;;;;4946524;29;20036;-80
2020/12/31 00:28:53;;;;;;;1.30;0.80;;;;;;;;;;4947578;29;20359;-81
2020/12/31 00:31:19;;;;;;;1.63;0.93;;;;;;;;;;4950552;29;20044;-80
2020/12/31 00:33:45;;;;;;;4.27;1.13;;;;;;;;;;4951459;29;20116;-80
2020/12/31 00:36:11;;;;;;;3.83;1.47;;;;;;;;;;4952850;29;20043;-80
2020/12/31 00:38:37;;;;;;;6.60;1.90;;;;;;;;;;4952258;29;20095;-80
2020/12/31 00:41:04;;;;;;;4.67;2.10;;;;;;;;;;4956735;29;20024;-81
2020/12/31 00:43:30;;;;;;;3.53;2.03;;;;;;;;;;4960388;29;20040;-81
2020/12/31 00:45:56;;;;;;;7.30;2.63;;;;;;;;;;4959864;29;20032;-80
2020/12/31 00:48:22;;;;;;;3.80;2.40;;;;;;;;;;4958661;29;20035;-81
2020/12/31 00:50:48;;;;;;;4.30;3.27;;;;;;;;;;4960899;29;20024;-82
2020/12/31 00:53:14;;;;;;;4.73;3.23;;;;;;;;;;4959341;29;20040;-81
2020/12/31 00:55:40;;;;;;;5.40;3.33;;;;;;;;;;4960706;29;20035;-82
2020/12/31 00:58:09;;;;;;;5.07;3.20;;;;;;;;;;4959469;29;20066;-80
2020/12/31 01:00:36;;;;;;;5.67;3.23;;;;;;;;;;4960712;29;20039;-81
2020/12/31 01:03:03;;;;;;;5.23;3.40;;;;;;;;;;4960602;29;20036;-82
2020/12/31 01:05:32;;;;;;;7.60;3.27;;;;;;;;;;4958210;29;20036;-80
2020/12/31 01:07:58;;;;;;;4.87;3.80;;;;;;;;;;4956241;29;20039;-80
2020/12/31 01:10:24;;;;;;;6.83;3.97;;;;;;;;;;4953860;29;20091;-80
2020/12/31 01:12:50;;;;;;;4.97;3.00;;;;;;;;;;4955023;29;20044;-80
2020/12/31 01:15:16;;;;;;;3.53;2.33;;;;;;;;;;4954096;29;20036;-80
2020/12/31 01:17:42;;;;;;;5.10;2.77;;;;;;;;;;4954752;29;20044;-81
2020/12/31 01:20:16;;;;;;;3.57;1.90;;;;;;;;;;4957035;29;20035;-81
2020/12/31 01:22:43;;;;;;;4.00;2.42;;;;;;;;;;4956004;29;20103;-80
2020/12/31 01:25:09;;;;;;;4.27;2.57;;;;;;;;;;4952675;29;20058;-80
2020/12/31 01:27:38;;;;;;;3.37;1.93;;;;;;;;;;4937515;29;20055;-81
2020/12/31 01:30:04;;;;;;;4.00;1.50;;;;;;;;;;4955302;29;20039;-81
2020/12/31 01:32:30;;;;;;;1.20;0.90;;;;;;;;;;4954685;29;20042;-82
2020/12/31 01:34:56;;;;;;;2.33;0.60;;;;;;;;;;4954298;29;20107;-79
2020/12/31 01:37:22;;;;;;;1.37;0.90;;;;;;;;;;4957470;29;20044;-81
2020/12/31 01:39:49;;;;;;;0.97;0.53;;;;;;;;;;4957584;29;20076;-82
2020/12/31 01:42:15;;;;;;;1.93;0.70;;;;;;;;;;4958848;29;20035;-81
2020/12/31 01:44:42;;;;;;;1.57;0.60;;;;;;;;;;4959091;29;20039;-82
2020/12/31 01:47:09;;;;;;;1.70;0.50;;;;;;;;;;4943064;29;20039;-82
2020/12/31 01:49:36;;;;;;;2.00;0.90;;;;;;;;;;4957270;29;20047;-81
2020/12/31 01:52:02;;;;;;;1.33;0.70;;;;;;;;;;4957945;29;20035;-82
2020/12/31 01:54:32;;;;;;;1.90;0.90;;;;;;;;;;4956342;29;20036;-82
2020/12/31 01:56:58;;;;;;;2.07;1.10;;;;;;;;;;4952580;29;20155;-80
2020/12/31 01:59:25;;;;;;;1.57;1.03;;;;;;;;;;4951356;29;20061;-82
2020/12/31 02:01:51;;;;;;;3.20;1.10;;;;;;;;;;4952626;29;20039;-80
2020/12/31 02:04:18;;;;;;;2.03;1.10;;;;;;;;;;4953794;29;20027;-80
2020/12/31 02:06:44;;;;;;;4.33;1.47;;;;;;;;;;4955151;29;20043;-80
2020/12/31 02:09:10;;;;;;;1.60;1.43;;;;;;;;;;4953976;29;20111;-81
2020/12/31 02:11:37;;;;;;;3.23;1.80;;;;;;;;;;4957671;29;20097;-81
2020/12/31 02:14:03;;;;;;;1.70;1.47;;;;;;;;;;4957084;29;20039;-80
2020/12/31 02:16:30;;;;;;;3.10;1.83;;;;;;;;;;4957183;29;20043;-80
2020/12/31 02:18:57;;;;;;;5.30;1.80;;;;;;;;;;4957811;29;20032;-80
2020/12/31 02:21:24;;;;;;;3.30;2.00;;;;;;;;;;4958024;29;20079;-81
2020/12/31 02:23:50;;;;;;;2.77;1.77;;;;;;;;;;4958476;29;20035;-80
2020/12/31 02:26:17;;;;;;;2.43;1.87;;;;;;;;;;4957902;29;20032;-81
2020/12/31 02:28:43;;;;;;;4.97;1.73;;;;;;;;;;4958880;29;20032;-82
2020/12/31 02:31:09;;;;;;;4.17;2.17;;;;;;;;;;4957947;29;20042;-81
2020/12/31 02:33:35;;;;;;;1.93;1.50;;;;;;;;;;4958075;29;20039;-80
2020/12/31 02:36:19;;;;;;;2.93;1.93;;;;;;;;;;4951863;29;20035;-80
2020/12/31 02:38:45;;;;;;;7.37;2.50;;;;;;;;;;4951453;29;20040;-80
2020/12/31 02:41:12;;;;;;;8.07;2.50;;;;;;;;;;4952711;29;20040;-80
2020/12/31 02:43:38;;;;;;;2.60;2.37;;;;;;;;;;4954244;29;20044;-80
2020/12/31 02:46:05;;;;;;;4.27;2.30;;;;;;;;;;4956889;29;20047;-81
2020/12/31 02:48:31;;;;;;;4.53;2.70;;;;;;;;;;4957686;29;20036;-80
2020/12/31 02:50:57;;;;;;;3.80;2.70;;;;;;;;;;4955895;29;20108;-80
2020/12/31 02:53:24;;;;;;;6.00;3.27;;;;;;;;;;4955354;29;20066;-80
2020/12/31 02:55:50;;;;;;;3.53;2.83;;;;;;;;;;4956681;29;20040;-80
2020/12/31 02:58:16;;;;;;;7.67;4.00;;;;;;;;;;4957838;29;20065;-80
2020/12/31 03:00:42;;;;;;;7.60;5.10;;;;;;;;;;4958715;29;20186;-80
2020/12/31 03:03:08;;;;;;;6.47;4.47;;;;;;;;;;4959994;29;20036;-81
2020/12/31 03:05:35;;;;;;;6.50;5.73;;;;;;;;;;4962468;29;20020;-82
2020/12/31 03:08:01;;;;;;;10.10;7.00;;;;;;;;;;4961916;29;20046;-81
2020/12/31 03:10:27;;;;;;;8.87;7.93;;;;;;;;;;4961637;29;20046;-83
2020/12/31 03:12:53;;;;;;;8.57;6.90;;;;;;;;;;4942449;29;20047;-80
2020/12/31 03:15:20;;;;;;;10.27;7.27;;;;;;;;;;4956699;29;20442;-80
2020/12/31 03:17:46;;;;;;;9.93;8.53;;;;;;;;;;4957477;29;20035;-80
2020/12/31 03:20:12;;;;;;;10.33;7.90;;;;;;;;;;4942257;29;20063;-81
2020/12/31 03:22:38;;;;;;;10.10;7.80;;;;;;;;;;4959955;29;20035;-80
2020/12/31 03:25:04;;;;;;;10.97;8.87;;;;;;;;;;4958452;29;20035;-80
2020/12/31 03:27:31;;;;;;;11.20;9.50;;;;;;;;;;4959264;29;20074;-80
2020/12/31 03:29:57;;;;;;;11.80;10.20;;;;;;;;;;4959910;29;20125;-82
2020/12/31 03:32:23;;;;;;;10.30;9.30;;;;;;;;;;4958537;29;20019;-81
2020/12/31 03:34:49;;;;;;;12.00;9.70;;;;;;;;;;4960207;29;20046;-81
2020/12/31 03:37:15;;;;;;;10.10;9.10;;;;;;;;;;4960600;29;20089;-82
2020/12/31 03:39:41;;;;;;;11.83;8.83;;;;;;;;;;4960842;29;20040;-81
2020/12/31 03:42:08;;;;;;;10.43;9.40;;;;;;;;;;4960080;29;20047;-81
2020/12/31 03:44:34;;;;;;;10.87;9.57;;;;;;;;;;4957336;29;20442;-80
2020/12/31 03:47:00;;;;;;;10.43;9.00;;;;;;;;;;4955202;29;20040;-81
2020/12/31 03:49:26;;;;;;;11.23;9.67;;;;;;;;;;4955870;29;20052;-80
2020/12/31 03:51:53;;;;;;;11.47;9.73;;;;;;;;;;4956058;29;20059;-80
2020/12/31 03:54:19;;;;;;;12.00;10.80;;;;;;;;;;4955959;29;20058;-80
2020/12/31 03:56:45;;;;;;;13.80;10.00;;;;;;;;;;4956477;29;20040;-81
2020/12/31 03:59:11;;;;;;;11.97;10.33;;;;;;;;;;4956199;29;20026;-80
2020/12/31 04:01:37;;;;;;;11.87;9.70;;;;;;;;;;4955965;29;20044;-81
2020/12/31 04:04:03;;;;;;;12.87;10.33;;;;;;;;;;4940746;29;20116;-80
2020/12/31 04:06:30;;;;;;;16.90;12.20;;;;;;;;;;4954410;29;20039;-80
2020/12/31 04:08:56;;;;;;;12.27;9.63;;;;;;;;;;4953815;29;20040;-81
2020/12/31 04:11:22;;;;;;;16.17;13.93;;;;;;;;;;4959622;29;20039;-81
2020/12/31 04:13:49;;;;;;;15.13;13.53;;;;;;;;;;4959996;29;20043;-81
2020/12/31 04:16:15;;;;;;;16.73;14.23;;;;;;;;;;4960320;29;20043;-81
2020/12/31 04:18:41;;;;;;;16.07;14.37;;;;;;;;;;4958161;29;20063;-82
2020/12/31 04:21:07;;;;;;;16.33;13.50;;;;;;;;;;4954075;29;20051;-81
2020/12/31 04:23:35;;;;;;;18.40;14.20;;;;;;;;;;4950982;29;20047;-80
2020/12/31 04:26:01;;;;;;;16.37;14.37;;;;;;;;;;4947260;29;20035;-80
2020/12/31 04:28:27;;;;;;;14.97;13.37;;;;;;;;;;4947642;29;20039;-80
2020/12/31 04:30:53;;;;;;;16.03;12.63;;;;;;;;;;4948899;29;20497;-80
2020/12/31 04:33:19;;;;;;;17.67;12.13;;;;;;;;;;4949981;29;20132;-81
2020/12/31 04:35:45;;;;;;;14.60;13.07;;;;;;;;;;4952952;29;20044;-80
2020/12/31 04:38:12;;;;;;;16.53;13.73;;;;;;;;;;4956934;29;20044;-81
2020/12/31 04:40:42;;;;;;;17.63;12.10;;;;;;;;;;4958293;29;20031;-81
2020/12/31 04:43:09;;;;;;;14.40;12.43;;;;;;;;;;4950276;29;20466;-80
2020/12/31 04:45:35;;;;;;;15.33;12.30;;;;;;;;;;4951674;29;20035;-80
2020/12/31 04:48:04;;;;;;;14.73;12.47;;;;;;;;;;4951037;29;20355;-81
2020/12/31 04:50:35;;;;;;;14.80;12.43;;;;;;;;;;4951847;29;20051;-81
2020/12/31 04:53:08;;;;;;;14.30;12.50;;;;;;;;;;4954958;29;20042;-81
2020/12/31 04:55:41;;;;;;;14.43;12.53;;;;;;;;;;4958053;29;20036;-81
2020/12/31 04:58:08;;;;;;;15.10;12.70;;;;;;;;;;4950719;29;20043;-80
2020/12/31 05:00:35;;;;;;;14.70;13.17;;;;;;;;;;4947998;29;20127;-80
2020/12/31 05:03:01;;;;;;;14.63;13.13;;;;;;;;;;4946810;29;20043;-80
2020/12/31 05:05:28;;;;;;;14.73;13.20;;;;;;;;;;4949435;29;20036;-80
2020/12/31 05:07:54;;;;;;;16.23;13.57;;;;;;;;;;4950511;29;20042;-80
2020/12/31 05:10:21;;;;;;;14.40;12.37;;;;;;;;;;4952471;29;20044;-81
2020/12/31 05:12:47;;;;;;;15.63;12.50;;;;;;;;;;4954182;29;20042;-80
2020/12/31 05:15:13;;;;;;;15.70;11.13;;;;;;;;;;4959122;29;20032;-82
2020/12/31 05:17:39;;;;;;;12.40;11.07;;;;;;;;;;4960197;29;20039;-81
2020/12/31 05:20:13;;;;;;;14.43;11.37;;;;;;;;;;4959630;29;20040;-83
2020/12/31 05:22:39;;;;;;;14.03;11.57;;;;;;;;;;4959192;29;20091;-82
2020/12/31 05:25:05;;;;;;;17.10;11.60;;;;;;;;;;4958885;29;20024;-82
2020/12/31 05:27:31;;;;;;;13.40;11.70;;;;;;;;;;4959708;29;20039;-82
2020/12/31 05:29:57;;;;;;;20.37;12.03;;;;;;;;;;4958948;29;20537;-82
2020/12/31 05:32:24;;;;;;;14.40;11.73;;;;;;;;;;4959234;29;20043;-82
2020/12/31 05:34:51;;;;;;;15.57;10.90;;;;;;;;;;4959652;29;20020;-81
2020/12/31 05:37:19;;;;;;;14.17;11.80;;;;;;;;;;4959027;29;20055;-80
2020/12/31 05:40:05;;;;;;;13.40;10.60;;;;;;;;;;4952262;29;20063;-81
2020/12/31 05:42:31;;;;;;;13.80;10.40;;;;;;;;;;4956418;29;20051;-82
2020/12/31 05:45:11;;;;;;;15.83;10.87;;;;;;;;;;4955638;29;20058;-81
2020/12/31 05:47:44;;;;;;;12.07;10.27;;;;;;;;;;4948159;29;20479;-80
2020/12/31 05:50:15;;;;;;;15.10;10.93;;;;;;;;;;4950232;29;20099;-80
2020/12/31 05:52:41;;;;;;;13.27;8.60;;;;;;;;;;4952786;29;20036;-82
2020/12/31 05:55:08;;;;;;;12.97;10.10;;;;;;;;;;4957172;29;20040;-81
2020/12/31 05:57:41;;;;;;;11.70;8.87;;;;;;;;;;4955886;29;20038;-82
2020/12/31 06:00:08;;;;;;;11.77;8.63;;;;;;;;;;4952097;29;20046;-80
2020/12/31 06:02:40;;;;;;;13.33;9.70;;;;;;;;;;4946366;29;20035;-81
2020/12/31 06:05:12;;;;;;;13.97;9.40;;;;;;;;;;4947417;29;20146;-81
2020/12/31 06:07:42;;;;;;;9.47;7.23;;;;;;;;;;4950291;29;20043;-80
2020/12/31 06:10:09;;;;;;;9.63;6.73;;;;;;;;;;4953388;29;20059;-82
2020/12/31 06:12:49;;;;;;;9.57;7.50;;;;;;;;;;4953577;29;20046;-81
2020/12/31 06:15:22;;;;;;;11.30;7.70;;;;;;;;;;4948249;29;20474;-80
2020/12/31 06:17:49;;;;;;;11.73;7.77;;;;;;;;;;4944500;29;20042;-80
2020/12/31 06:20:16;;;;;;;14.23;8.33;;;;;;;;;;4944051;29;20054;-80
2020/12/31 06:23:02;;;;;;;9.10;7.50;;;;;;;;;;4943505;29;20099;-80
2020/12/31 06:25:42;;;;;;;15.17;8.40;;;;;;;;;;4943275;29;20050;-80
2020/12/31 06:28:09;;;;;;;11.43;8.73;;;;;;;;;;4943628;29;20040;-80
2020/12/31 06:30:36;;;;;;;18.03;9.10;;;;;;;;;;4944400;29;20072;-80
2020/12/31 06:33:06;;;;;;;12.53;8.10;;;;;;;;;;4944392;29;20035;-80
2020/12/31 06:35:34;;;;;;;10.83;6.77;;;;;;;;;;4944481;29;20063;-79
2020/12/31 06:38:00;;;;;;;9.23;6.13;;;;;;;;;;4946259;29;20059;-80
2020/12/31 06:40:27;;;;;;;8.93;5.37;;;;;;;;;;4931136;29;20086;-80
2020/12/31 06:43:13;;;;;;;10.53;4.60;;;;;;;;;;4950853;29;20062;-80
2020/12/31 06:45:39;;;;;;;17.90;5.63;;;;;;;;;;4946354;29;20044;-80
2020/12/31 06:48:25;;;;;;;9.93;5.03;;;;;;;;;;4945966;29;20067;-80
2020/12/31 06:50:57;;;;;;;7.00;4.13;;;;;;;;;;4945161;29;20044;-80
2020/12/31 06:53:29;;;;;;;7.27;3.80;;;;;;;;;;4947382;29;20032;-80
2020/12/31 06:55:56;;;;;;;12.03;4.37;;;;;;;;;;4949712;29;20028;-80
2020/12/31 06:58:22;;;;;;;7.47;4.00;;;;;;;;;;4949250;29;20043;-80
2020/12/31 07:00:49;;;;;;;10.87;4.40;;;;;;;;;;4950455;29;20091;-80
2020/12/31 07:03:15;;;;;;;10.00;3.53;;;;;;;;;;4952872;29;20043;-81
2020/12/31 07:05:41;;;;;;;10.00;4.10;;;;;;;;;;4938603;29;20083;-80
2020/12/31 07:08:07;;;;;;;8.10;3.47;;;;;;;;;;4953805;29;20035;-82
2020/12/31 07:10:46;;;;;;;7.03;3.53;;;;;;;;;;4936959;29;20052;-81
2020/12/31 07:13:31;;;;;;;6.03;3.20;;;;;;;;;;4949645;29;20035;-80
2020/12/31 07:15:57;;;;;;;9.45;4.00;;;;;;;;;;4948998;29;20039;-81
2020/12/31 07:18:23;;;;;;;9.27;4.07;;;;;;;;;;4932831;29;20450;-80
2020/12/31 07:20:50;;;;;;;7.77;2.97;;;;;;;;;;4946825;29;20077;-80
2020/12/31 07:23:16;;;;;;;7.77;3.77;;;;;;;;;;4948408;29;20047;-81
2020/12/31 07:25:45;;;;;;;9.73;5.17;;;;;;;;;;4951660;29;20039;-81
2020/12/31 07:28:17;;;;;;;13.17;5.97;;;;;;;;;;4950178;29;20126;-80
2020/12/31 07:30:53;;;;;;;7.47;5.67;;;;;;;;;;4955450;29;20035;-81
2020/12/31 07:33:38;;;;;;;10.83;6.83;;;;;;;;;;4954993;29;20103;-81
2020/12/31 07:36:13;;;;;;;12.93;7.57;;;;;;;;;;4953612;29;20040;-80
2020/12/31 07:38:40;;;;;;;13.10;7.50;;;;;;;;;;4954582;29;20107;-81
2020/12/31 07:41:11;;;;;;;10.80;7.67;;;;;;;;;;4955443;29;20102;-81
2020/12/31 07:43:37;;;;;;;13.30;9.40;;;;;;;;;;4954279;29;20028;-81
2020/12/31 07:46:04;;;;;;;11.50;9.03;;;;;;;;;;4952936;29;20044;-80
2020/12/31 07:48:31;;;;;;;10.60;8.47;;;;;;;;;;4949543;29;20047;-81
2020/12/31 07:50:58;;;;;;;12.33;8.60;;;;;;;;;;4948857;29;20047;-81
2020/12/31 07:53:24;;;;;;;13.87;9.20;;;;;;;;;;4949031;29;20040;-80
2020/12/31 07:55:53;;;;;;;12.33;8.43;;;;;;;;;;4949065;29;20044;-81
2020/12/31 07:58:20;;;;;;;10.27;8.17;;;;;;;;;;4947983;29;20039;-81
2020/12/31 08:00:57;;;;;;;14.40;8.77;;;;;;;;;;4947889;29;20040;-81
2020/12/31 08:03:23;;;;;;;11.47;9.03;;;;;;;;;;4948154;29;20035;-80
2020/12/31 08:05:56;;;;;;;12.07;8.93;;;;;;;;;;4946550;29;20036;-80
2020/12/31 08:08:22;;;;;;;12.33;9.20;;;;;;;;;;4946476;29;20075;-80
2020/12/31 08:10:48;;;;;;;11.20;9.53;;;;;;;;;;4945575;29;20461;-80
2020/12/31 08:13:16;;;;;;;14.87;10.03;;;;;;;;;;4946423;29;20122;-80
2020/12/31 08:15:42;;;;;;;13.70;9.97;;;;;;;;;;4946236;29;20036;-81
2020/12/31 08:18:08;;;;;;;12.93;9.87;;;;;;;;;;4945710;29;20040;-80
2020/12/31 08:20:37;;;;;;;13.33;9.80;;;;;;;;;;4947865;29;20075;-80
2020/12/31 08:23:04;;;;;;;15.33;10.63;;;;;;;;;;4945567;29;20046;-80
2020/12/31 08:25:37;;;;;;;12.90;9.60;;;;;;;;;;4946563;29;20035;-80
2020/12/31 08:28:07;;;;;;;15.30;9.73;;;;;;;;;;4951108;29;20102;-81
2020/12/31 08:30:36;;;;;;;14.20;10.67;;;;;;;;;;4952577;29;20040;-81
2020/12/31 08:33:03;;;;;;;14.43;11.07;;;;;;;;;;4945688;29;20032;-81
2020/12/31 08:35:29;;;;;;;16.50;10.37;;;;;;;;;;4946335;29;20043;-81
2020/12/31 08:38:01;;;;;;;12.97;9.67;;;;;;;;;;4945861;29;20040;-80
2020/12/31 08:40:27;;;;;;;10.27;8.53;;;;;;;;;;4945276;29;20409;-80
2020/12/31 08:42:54;;;;;;;13.07;9.47;;;;;;;;;;4946369;29;20064;-79
2020/12/31 08:45:24;;;;;;;15.93;8.50;;;;;;;;;;4931850;29;20075;-80
2020/12/31 08:47:50;;;;;;;14.70;9.60;;;;;;;;;;4949827;29;20074;-80
2020/12/31 08:50:16;;;;;;;12.17;8.97;;;;;;;;;;4949035;29;20199;-81
2020/12/31 08:52:42;;;;;;;15.33;11.53;;;;;;;;;;4951069;29;20477;-81
2020/12/31 08:55:09;;;;;;;25.33;18.27;;;;;;;;;;4935414;29;20126;-80
2020/12/31 08:57:35;;;;;;;23.00;16.73;;;;;;;;;;4951855;29;20048;-81
2020/12/31 09:00:02;;;;;;;18.80;14.67;;;;;;;;;;4950495;29;20040;-81
2020/12/31 09:02:28;;;;;;;24.87;15.37;;;;;;;;;;4937136;29;20050;-81
2020/12/31 09:05:10;;;;;;;26.40;20.13;;;;;;;;;;4952893;29;20047;-81
2020/12/31 09:07:36;;;;;;;27.00;20.30;;;;;;;;;;4951276;29;20406;-80
2020/12/31 09:10:16;;;;;;;36.53;22.50;;;;;;;;;;4952675;29;20058;-80
2020/12/31 09:12:42;;;;;;;15.13;12.07;;;;;;;;;;4952117;29;20036;-80
2020/12/31 09:15:08;;;;;;;14.53;10.50;;;;;;;;;;4948286;29;20067;-81
2020/12/31 09:17:35;;;;;;;14.57;11.53;;;;;;;;;;4949076;29;20475;-80
2020/12/31 09:20:01;;;;;;;23.50;13.43;;;;;;;;;;4951516;29;20039;-80
2020/12/31 09:22:27;;;;;;;21.17;13.30;;;;;;;;;;4950956;29;20031;-81
2020/12/31 09:24:53;;;;;;;16.63;12.70;;;;;;;;;;4950590;29;20032;-80
2020/12/31 09:27:23;;;;;;;16.13;12.70;;;;;;;;;;4943963;29;20040;-81
2020/12/31 09:30:02;;;;;;;16.67;12.47;;;;;;;;;;4945191;29;20146;-81
2020/12/31 09:32:28;;;;;;;17.63;13.23;;;;;;;;;;4948944;29;20054;-81
2020/12/31 09:34:54;;;;;;;20.83;14.97;;;;;;;;;;4950507;29;20032;-81
2020/12/31 09:37:20;;;;;;;19.13;14.97;;;;;;;;;;4951076;29;20068;-81
2020/12/31 09:39:46;;;;;;;21.70;15.10;;;;;;;;;;4951560;29;20075;-81
2020/12/31 09:42:13;;;;;;;24.63;16.60;;;;;;;;;;4935417;29;20075;-80
2020/12/31 09:44:39;;;;;;;26.03;17.33;;;;;;;;;;4933979;29;20040;-81
2020/12/31 09:47:05;;;;;;;22.43;17.90;;;;;;;;;;4952410;29;20047;-81
2020/12/31 09:49:31;;;;;;;26.80;18.33;;;;;;;;;;4947882;29;20067;-81
2020/12/31 09:51:57;;;;;;;28.40;18.93;;;;;;;;;;4951317;29;20044;-81
2020/12/31 09:54:23;;;;;;;26.50;18.97;;;;;;;;;;4949439;29;20107;-81
2020/12/31 09:56:49;;;;;;;25.10;18.17;;;;;;;;;;4948173;29;20040;-82
2020/12/31 09:59:15;;;;;;;24.63;17.03;;;;;;;;;;4948887;29;20039;-81
2020/12/31 10:01:42;;;;;;;29.37;19.10;;;;;;;;;;4948646;29;20486;-80
2020/12/31 10:04:08;;;;;;;21.40;15.20;;;;;;;;;;4932500;29;20040;-81
2020/12/31 10:06:34;;;;;;;27.87;19.20;;;;;;;;;;4949183;29;20043;-81
2020/12/31 10:09:00;;;;;;;25.77;18.40;;;;;;;;;;4932775;29;20056;-81
2020/12/31 10:11:28;;;;;;;27.43;21.23;;;;;;;;;;4951125;29;20134;-82
2020/12/31 10:13:54;;;;;;;33.17;23.23;;;;;;;;;;4952934;29;20107;-81
2020/12/31 10:16:21;;;;;;;35.43;21.27;;;;;;;;;;4953964;29;20125;-80
2020/12/31 10:18:47;;;;;;;33.90;23.10;;;;;;;;;;4957011;29;20047;-82
2020/12/31 10:21:13;;;;;;;35.60;22.83;;;;;;;;;;4955519;29;20056;-82
2020/12/31 10:23:39;;;;;;;39.50;27.13;;;;;;;;;;4955400;29;20035;-82
2020/12/31 10:26:05;;;;;;;44.43;29.67;;;;;;;;;;4955527;29;20036;-81
2020/12/31 10:28:32;;;;;;;50.00;31.10;;;;;;;;;;4956517;29;20044;-81
2020/12/31 10:31:00;;;;;;;32.20;19.60;;;;;;;;;;4954147;29;20074;-80
2020/12/31 10:33:26;;;;;;;39.70;27.00;;;;;;;;;;4950337;29;20055;-81
2020/12/31 10:35:52;;;;;;;52.93;32.83;;;;;;;;;;4950893;29;20040;-81
2020/12/31 10:38:18;;;;;;;45.77;30.10;;;;;;;;;;4950332;29;20043;-82
2020/12/31 10:40:45;;;;;;;53.23;31.67;;;;;;;;;;4953461;29;20044;-81
2020/12/31 10:43:11;;;;;;;66.10;33.27;;;;;;;;;;4937114;29;20044;-81
2020/12/31 10:45:37;;;;;;;60.90;36.20;;;;;;;;;;4953650;29;20512;-82
2020/12/31 10:48:07;;;;;;;75.97;39.63;;;;;;;;;;4934868;29;20040;-81
2020/12/31 10:50:33;;;;;;;49.87;30.33;;;;;;;;;;4948885;29;20035;-82
2020/12/31 10:52:59;;;;;;;45.63;28.43;;;;;;;;;;4948383;29;20042;-82
2020/12/31 10:55:25;;;;;;;54.93;29.80;;;;;;;;;;4949376;29;20035;-82
2020/12/31 10:57:51;;;;;;;51.83;31.53;;;;;;;;;;4948853;29;20040;-82
2020/12/31 11:00:17;;;;;;;41.23;24.03;;;;;;;;;;4950979;29;20036;-81
2020/12/31 11:02:43;;;;;;;68.33;37.50;;;;;;;;;;4954220;29;20032;-81
2020/12/31 11:05:10;;;;;;;53.60;29.30;;;;;;;;;;4956543;29;20068;-82
2020/12/31 11:07:37;;;;;;;77.10;35.27;;;;;;;;;;4958176;29;20043;-81
2020/12/31 11:10:03;;;;;;;90.87;37.83;;;;;;;;;;4949268;29;20095;-81
2020/12/31 11:12:29;;;;;;;101.87;38.50;;;;;;;;;;4949619;29;20107;-80
2020/12/31 11:14:55;;;;;;;69.27;31.40;;;;;;;;;;4951193;29;20083;-80
2020/12/31 11:17:21;;;;;;;71.23;33.97;;;;;;;;;;4952245;29;20039;-80
2020/12/31 11:19:47;;;;;;;90.73;37.63;;;;;;;;;;4951158;29;20039;-80
2020/12/31 11:22:13;;;;;;;91.30;36.93;;;;;;;;;;4950526;29;20036;-81
2020/12/31 11:24:39;;;;;;;87.53;34.47;;;;;;;;;;4953027;29;20047;-81
2020/12/31 11:27:06;;;;;;;127.83;42.13;;;;;;;;;;4951958;29;20040;-80
2020/12/31 11:29:32;;;;;;;125.93;41.47;;;;;;;;;;4953979;29;20083;-81
2020/12/31 11:32:02;;;;;;;108.47;38.43;;;;;;;;;;4953883;29;20058;-82
2020/12/31 11:34:28;;;;;;;75.80;32.97;;;;;;;;;;4953161;29;20040;-80
2020/12/31 11:36:55;;;;;;;58.97;28.90;;;;;;;;;;4949630;29;20033;-80
2020/12/31 11:39:21;;;;;;;58.73;26.83;;;;;;;;;;4951169;29;20107;-81
2020/12/31 11:41:48;;;;;;;56.93;29.10;;;;;;;;;;4936472;29;20059;-82
2020/12/31 11:44:14;;;;;;;72.17;33.10;;;;;;;;;;4956050;29;20034;-80
2020/12/31 11:46:40;;;;;;;73.90;36.47;;;;;;;;;;4942093;29;20065;-80
2020/12/31 11:49:06;;;;;;;56.83;31.07;;;;;;;;;;4957955;29;20031;-80
2020/12/31 11:51:32;;;;;;;50.93;25.40;;;;;;;;;;4943210;29;20050;-82
2020/12/31 11:53:58;;;;;;;43.83;27.50;;;;;;;;;;4956644;29;20039;-81
2020/12/31 11:56:24;;;;;;;51.30;30.63;;;;;;;;;;4955905;29;20043;-81
2020/12/31 11:58:50;;;;;;;37.97;28.93;;;;;;;;;;4955844;29;20050;-80
2020/12/31 12:01:16;;;;;;;31.93;23.00;;;;;;;;;;4955052;29;20039;-80
2020/12/31 12:03:44;;;;;;;31.17;20.10;;;;;;;;;;4956644;29;20110;-81
2020/12/31 12:06:10;;;;;;;30.17;23.10;;;;;;;;;;4958818;29;20036;-81
2020/12/31 12:08:36;;;;;;;31.33;20.43;;;;;;;;;;4954763;29;20040;-80
2020/12/31 12:11:03;;;;;;;29.27;22.63;;;;;;;;;;4955470;29;20400;-80
2020/12/31 12:13:29;;;;;;;32.33;23.53;;;;;;;;;;4951855;29;20075;-80
2020/12/31 12:15:55;;;;;;;25.37;19.77;;;;;;;;;;4947947;29;20042;-81
2020/12/31 12:18:23;;;;;;;31.13;20.60;;;;;;;;;;4948474;29;20039;-80
2020/12/31 12:20:50;;;;;;;33.50;22.63;;;;;;;;;;4947988;29;20142;-80
2020/12/31 12:23:16;;;;;;;30.83;23.80;;;;;;;;;;4950197;29;20058;-80
2020/12/31 12:25:43;;;;;;;32.63;24.63;;;;;;;;;;4953320;29;20031;-80
2020/12/31 12:28:09;;;;;;;28.37;21.03;;;;;;;;;;4955287;29;20099;-81
2020/12/31 12:30:35;;;;;;;27.57;19.77;;;;;;;;;;4961120;29;20046;-80
2020/12/31 12:33:01;;;;;;;25.30;18.90;;;;;;;;;;4959341;29;20099;-81
2020/12/31 12:35:27;;;;;;;30.70;20.30;;;;;;;;;;4958193;29;20064;-80
2020/12/31 12:37:53;;;;;;;27.27;21.57;;;;;;;;;;4951474;29;20040;-81
2020/12/31 12:40:20;;;;;;;27.13;18.57;;;;;;;;;;4953183;29;20112;-80
2020/12/31 12:42:46;;;;;;;23.73;18.20;;;;;;;;;;4955436;29;20101;-81
2020/12/31 12:45:13;;;;;;;26.70;20.13;;;;;;;;;;4959748;29;20016;-81
2020/12/31 12:47:39;;;;;;;27.57;19.00;;;;;;;;;;4960966;29;20050;-81
2020/12/31 12:50:06;;;;;;;26.27;17.20;;;;;;;;;;4962193;29;20024;-82
2020/12/31 12:52:33;;;;;;;23.27;16.70;;;;;;;;;;4960061;29;20036;-82
2020/12/31 12:54:59;;;;;;;26.43;17.67;;;;;;;;;;4958765;29;20099;-82
2020/12/31 12:57:27;;;;;;;23.20;17.30;;;;;;;;;;4952329;29;20128;-82
2020/12/31 12:59:54;;;;;;;20.47;15.20;;;;;;;;;;4953796;29;20126;-82
2020/12/31 13:02:22;;;;;;;20.23;13.40;;;;;;;;;;4953844;29;20411;-80
2020/12/31 13:04:49;;;;;;;19.97;14.63;;;;;;;;;;4952028;29;20049;-82
2020/12/31 13:07:41;;;;;;;20.80;14.67;;;;;;;;;;4951703;29;20506;-81
2020/12/31 13:10:08;;;;;;;19.87;14.73;;;;;;;;;;4949599;29;20070;-82
2020/12/31 13:12:34;;;;;;;16.83;11.90;;;;;;;;;;4952868;29;20054;-81
2020/12/31 13:15:00;;;;;;;17.27;11.00;;;;;;;;;;4951928;29;20040;-83
2020/12/31 13:17:26;;;;;;;19.83;10.43;;;;;;;;;;4954369;29;20086;-82
2020/12/31 13:23:13;;;;;;;16.75;9.60;;;;;;;;;;4953017;29;20437;-81
2020/12/31 13:25:39;;;;;;;14.73;9.67;;;;;;;;;;4935956;29;20499;-81
2020/12/31 13:28:06;;;;;;;13.23;8.90;;;;;;;;;;4936642;29;20048;-81
2020/12/31 13:30:32;;;;;;;12.00;8.63;;;;;;;;;;4941192;29;20024;-81
2020/12/31 13:32:58;;;;;;;14.13;9.13;;;;;;;;;;4942495;29;20088;-82
2020/12/31 13:35:24;;;;;;;13.57;8.90;;;;;;;;;;4940941;29;20040;-82
2020/12/31 13:37:51;;;;;;;14.63;8.67;;;;;;;;;;4937612;29;20067;-82
2020/12/31 13:40:17;;;;;;;13.10;9.03;;;;;;;;;;4936504;29;20033;-82
2020/12/31 13:42:43;;;;;;;14.57;7.77;;;;;;;;;;4936804;29;20064;-81
2020/12/31 13:45:15;;;;;;;10.77;7.83;;;;;;;;;;4937903;29;20024;-81
2020/12/31 13:47:41;;;;;;;10.70;8.10;;;;;;;;;;4939370;29;20032;-82
2020/12/31 13:50:08;;;;;;;11.53;8.23;;;;;;;;;;4941680;29;20038;-81
2020/12/31 13:52:34;;;;;;;12.70;8.00;;;;;;;;;;4941977;29;20056;-81
2020/12/31 13:55:02;;;;;;;10.10;7.73;;;;;;;;;;4942348;29;20032;-82
2020/12/31 14:02:39;;;;;;;13.50;9.20;;;;;;;;;;5622468;23;20148;-82
2020/12/31 14:05:06;;;;;;;29.97;16.70;;;;;;;;;;4956853;29;20047;-82
2020/12/31 14:07:33;;;;;;;10.17;7.27;;;;;;;;;;4957365;29;20039;-81
2020/12/31 14:13:03;;;;;;;33.17;16.53;;;;;;;;;;4960237;29;20018;-81
2020/12/31 14:18:33;;;;;;;11.60;7.87;;;;;;;;;;4960088;28;20055;-82
2020/12/31 14:20:59;;;;;;;14.10;7.60;;;;;;;;;;4959327;28;20039;-82
2020/12/31 14:23:26;;;;;;;13.77;6.87;;;;;;;;;;4955720;29;20036;-81
2020/12/31 14:25:52;;;;;;;12.87;6.60;;;;;;;;;;4956977;29;20039;-80
2020/12/31 14:28:21;;;;;;;14.20;6.90;;;;;;;;;;4959714;29;20038;-82
2020/12/31 14:36:23;;;;;;;8.87;4.87;;;;;;;;;;5454802;23;20072;-82
2020/12/31 14:38:49;;;;;;;8.77;5.53;;;;;;;;;;4936473;29;20079;-81
2020/12/31 14:41:16;;;;;;;40.20;18.33;;;;;;;;;;4952560;29;20064;-81
2020/12/31 14:43:42;;;;;;;61.23;30.07;;;;;;;;;;4953158;29;20036;-80
2020/12/31 14:46:08;;;;;;;32.63;16.13;;;;;;;;;;4957380;29;20020;-81
2020/12/31 14:48:34;;;;;;;42.43;17.93;;;;;;;;;;4954045;29;20040;-81
2020/12/31 14:51:00;;;;;;;20.97;9.67;;;;;;;;;;4955566;29;20043;-81